Time;durP1;ratioP1;P1;durP2;ratioP2;P2;SDS_P1;SDS_P2;PMS_P1;PMS_P2;Temp;Humidity;BMP_temperature;BMP_pressure;BME280_temperature;BME280_humidity;BME280_pressure;Samples;Min_cycle;Max_cycle;Signal;HPM_P1;HPM_P2
2023/06/26 00:01:47;;;;;;;11.50;7.40;;;;;;;;;;5095256;28;20055;-63
2023/06/26 00:04:32;;;;;;;9.70;6.00;;;;;;;;;;5094604;28;20028;-65
2023/06/26 00:07:18;;;;;;;10.18;6.70;;;;;;;;;;5095299;28;20374;-66
2023/06/26 00:10:04;;;;;;;10.48;6.72;;;;;;;;;;5095398;28;20024;-64
2023/06/26 00:12:49;;;;;;;12.15;7.15;;;;;;;;;;5093733;28;20043;-64
2023/06/26 00:15:35;;;;;;;12.25;7.07;;;;;;;;;;5094967;28;20459;-70
2023/06/26 00:18:23;;;;;;;12.18;6.82;;;;;;;;;;5095056;28;20366;-70
2023/06/26 00:21:08;;;;;;;10.15;6.47;;;;;;;;;;5094718;28;20200;-71
2023/06/26 00:23:54;;;;;;;10.05;6.72;;;;;;;;;;5094713;28;20039;-71
2023/06/26 00:26:39;;;;;;;10.45;6.75;;;;;;;;;;5094977;28;20028;-69
2023/06/26 00:29:25;;;;;;;10.82;7.07;;;;;;;;;;5078613;28;20032;-69
2023/06/26 00:32:10;;;;;;;10.25;6.90;;;;;;;;;;5094340;28;20110;-70
2023/06/26 00:34:56;;;;;;;11.15;7.07;;;;;;;;;;5094525;28;20107;-66
2023/06/26 00:37:41;;;;;;;12.48;7.10;;;;;;;;;;5094537;28;20032;-62
2023/06/26 00:40:27;;;;;;;10.38;6.57;;;;;;;;;;5094394;28;20047;-63
2023/06/26 00:43:12;;;;;;;10.68;6.82;;;;;;;;;;5093349;28;20444;-62
2023/06/26 00:45:58;;;;;;;11.52;7.25;;;;;;;;;;5078490;28;20153;-62
2023/06/26 00:48:45;;;;;;;11.32;7.50;;;;;;;;;;5095445;28;20391;-62
2023/06/26 00:51:31;;;;;;;9.30;6.60;;;;;;;;;;5094222;28;20028;-64
2023/06/26 00:54:19;;;;;;;9.48;6.72;;;;;;;;;;5094270;28;20085;-66
2023/06/26 00:57:05;;;;;;;11.07;6.82;;;;;;;;;;5094092;28;20494;-65
2023/06/26 00:59:51;;;;;;;10.75;6.75;;;;;;;;;;5093848;28;20043;-64
2023/06/26 01:02:38;;;;;;;9.90;6.88;;;;;;;;;;5094160;28;20118;-64
2023/06/26 01:05:24;;;;;;;9.63;6.57;;;;;;;;;;5093871;28;20328;-63
2023/06/26 01:08:10;;;;;;;11.35;7.68;;;;;;;;;;5093749;28;20035;-66
2023/06/26 01:10:56;;;;;;;8.95;6.88;;;;;;;;;;5092796;28;20024;-68
2023/06/26 01:13:43;;;;;;;9.93;7.20;;;;;;;;;;5094088;28;20028;-72
2023/06/26 01:16:29;;;;;;;10.98;7.50;;;;;;;;;;5093709;28;20055;-72
2023/06/26 01:19:25;;;;;;;10.95;7.28;;;;;;;;;;5093498;28;20024;-70
2023/06/26 01:22:27;;;;;;;10.65;6.95;;;;;;;;;;5092604;28;20146;-71
2023/06/26 01:25:25;;;;;;;11.02;7.40;;;;;;;;;;5093464;28;20065;-70
2023/06/26 01:28:11;;;;;;;10.35;6.70;;;;;;;;;;5093481;28;20028;-72
2023/06/26 01:30:57;;;;;;;12.02;7.07;;;;;;;;;;5092531;28;20463;-65
2023/06/26 01:33:43;;;;;;;9.55;6.68;;;;;;;;;;5093273;28;20111;-64
2023/06/26 01:36:28;;;;;;;10.82;6.68;;;;;;;;;;5093383;28;20040;-65
2023/06/26 01:39:15;;;;;;;10.75;7.20;;;;;;;;;;5092754;28;20451;-65
2023/06/26 01:42:00;;;;;;;9.77;6.50;;;;;;;;;;5092130;28;20347;-64
2023/06/26 01:44:46;;;;;;;9.93;6.90;;;;;;;;;;5093229;28;20063;-64
2023/06/26 01:47:34;;;;;;;10.82;7.25;;;;;;;;;;5093047;28;20549;-70
2023/06/26 01:50:25;;;;;;;9.93;6.90;;;;;;;;;;5093185;28;20036;-71
2023/06/26 01:53:12;;;;;;;10.27;6.72;;;;;;;;;;5092803;28;20063;-72
2023/06/26 01:56:01;;;;;;;10.13;7.10;;;;;;;;;;5091796;28;20023;-71
2023/06/26 01:58:47;;;;;;;9.93;6.57;;;;;;;;;;5091275;28;20028;-72
2023/06/26 02:01:33;;;;;;;11.50;7.75;;;;;;;;;;5093471;28;20098;-71
2023/06/26 02:04:19;;;;;;;11.55;6.65;;;;;;;;;;5092841;28;20047;-72
2023/06/26 02:07:05;;;;;;;9.85;6.80;;;;;;;;;;5092242;28;20028;-62
2023/06/26 02:09:51;;;;;;;10.13;6.80;;;;;;;;;;5092719;28;20028;-68
2023/06/26 02:12:37;;;;;;;9.02;5.97;;;;;;;;;;5092921;28;20069;-69
2023/06/26 02:15:23;;;;;;;10.05;6.70;;;;;;;;;;5092901;28;20028;-67
2023/06/26 02:18:08;;;;;;;10.88;6.95;;;;;;;;;;5092779;28;20112;-69
2023/06/26 02:20:54;;;;;;;10.68;6.68;;;;;;;;;;5092312;28;20039;-67
2023/06/26 02:23:39;;;;;;;11.38;6.40;;;;;;;;;;5092769;28;20409;-68
2023/06/26 02:26:25;;;;;;;9.68;6.35;;;;;;;;;;5092679;28;20111;-64
2023/06/26 02:29:10;;;;;;;10.63;7.10;;;;;;;;;;5092384;28;20459;-68
2023/06/26 02:31:56;;;;;;;10.52;6.43;;;;;;;;;;5092439;28;20107;-69
2023/06/26 02:34:41;;;;;;;10.50;6.68;;;;;;;;;;5076455;28;20430;-68
2023/06/26 02:37:27;;;;;;;9.35;6.75;;;;;;;;;;5092594;28;20218;-68
2023/06/26 02:40:12;;;;;;;10.32;6.93;;;;;;;;;;5092015;28;20114;-68
2023/06/26 02:42:58;;;;;;;11.60;6.82;;;;;;;;;;5076911;28;20024;-68
2023/06/26 02:45:43;;;;;;;12.18;7.15;;;;;;;;;;5092601;28;20020;-72
2023/06/26 02:48:29;;;;;;;10.35;7.28;;;;;;;;;;5092453;28;20028;-71
2023/06/26 02:51:14;;;;;;;9.13;6.50;;;;;;;;;;5092432;28;20043;-72
2023/06/26 02:54:00;;;;;;;10.50;6.88;;;;;;;;;;5092426;28;20027;-71
2023/06/26 02:56:46;;;;;;;12.43;7.25;;;;;;;;;;5092400;28;20463;-71
2023/06/26 02:59:32;;;;;;;10.57;6.70;;;;;;;;;;5092422;28;20032;-72
2023/06/26 03:02:17;;;;;;;10.15;7.13;;;;;;;;;;5092375;28;20036;-68
2023/06/26 03:05:04;;;;;;;9.07;6.03;;;;;;;;;;5092382;28;20513;-67
2023/06/26 03:07:49;;;;;;;10.20;6.50;;;;;;;;;;5092130;28;20103;-68
2023/06/26 03:10:35;;;;;;;9.45;6.38;;;;;;;;;;5091050;28;20047;-67
2023/06/26 03:13:20;;;;;;;9.55;6.57;;;;;;;;;;5096173;28;20028;-67
2023/06/26 03:16:06;;;;;;;9.70;6.00;;;;;;;;;;5096011;28;20023;-68
2023/06/26 03:18:51;;;;;;;9.13;6.35;;;;;;;;;;5095850;28;20386;-68
2023/06/26 03:21:37;;;;;;;14.55;7.25;;;;;;;;;;5080205;28;20035;-66
2023/06/26 03:24:22;;;;;;;9.27;6.88;;;;;;;;;;5095965;28;20169;-64
2023/06/26 03:27:09;;;;;;;11.20;7.18;;;;;;;;;;5095823;28;20103;-65
2023/06/26 03:29:55;;;;;;;11.68;6.88;;;;;;;;;;5095664;28;20089;-64
2023/06/26 03:32:40;;;;;;;11.00;7.60;;;;;;;;;;5095613;28;20063;-64
2023/06/26 03:35:26;;;;;;;10.40;7.20;;;;;;;;;;5095550;28;20365;-64
2023/06/26 03:38:11;;;;;;;9.60;6.72;;;;;;;;;;5095642;28;20028;-75
2023/06/26 03:40:57;;;;;;;11.45;6.53;;;;;;;;;;5095588;28;20028;-68
2023/06/26 03:43:42;;;;;;;9.50;7.10;;;;;;;;;;5095289;28;20040;-66
2023/06/26 03:46:28;;;;;;;9.88;6.45;;;;;;;;;;5095523;28;20028;-65
2023/06/26 03:49:14;;;;;;;11.38;6.25;;;;;;;;;;5094082;28;20042;-66
2023/06/26 03:51:59;;;;;;;9.73;6.63;;;;;;;;;;5095429;28;20522;-67
2023/06/26 03:54:45;;;;;;;10.60;6.72;;;;;;;;;;5094955;28;20116;-65
2023/06/26 03:57:30;;;;;;;10.38;6.68;;;;;;;;;;5095214;28;20051;-68
2023/06/26 04:00:16;;;;;;;10.93;6.20;;;;;;;;;;5095283;28;20024;-68
2023/06/26 04:03:02;;;;;;;10.60;6.10;;;;;;;;;;5094955;28;20024;-68
2023/06/26 04:05:48;;;;;;;9.85;6.53;;;;;;;;;;5096199;28;20494;-67
2023/06/26 04:08:33;;;;;;;9.30;6.55;;;;;;;;;;5095951;28;20482;-67
2023/06/26 04:11:19;;;;;;;11.45;6.97;;;;;;;;;;5095473;28;20028;-68
2023/06/26 04:14:05;;;;;;;9.65;6.40;;;;;;;;;;5095250;28;20467;-67
2023/06/26 04:16:50;;;;;;;9.20;6.15;;;;;;;;;;5095314;28;20096;-72
2023/06/26 04:19:36;;;;;;;10.65;7.68;;;;;;;;;;5095150;28;20085;-62
2023/06/26 04:22:21;;;;;;;10.13;6.63;;;;;;;;;;5094732;28;20481;-63
2023/06/26 04:25:07;;;;;;;11.43;6.43;;;;;;;;;;5096002;28;20079;-63
2023/06/26 04:27:53;;;;;;;11.77;7.07;;;;;;;;;;5094965;28;20016;-62
2023/06/26 04:30:38;;;;;;;8.95;6.00;;;;;;;;;;5094692;28;20133;-63
2023/06/26 04:33:25;;;;;;;9.80;6.32;;;;;;;;;;5094796;28;20103;-75
2023/06/26 04:36:11;;;;;;;10.93;6.80;;;;;;;;;;5094787;28;20112;-71
2023/06/26 04:38:57;;;;;;;10.60;6.63;;;;;;;;;;5094429;28;20028;-70
2023/06/26 04:41:44;;;;;;;12.55;7.35;;;;;;;;;;5094489;28;20085;-70
2023/06/26 04:44:30;;;;;;;10.88;6.20;;;;;;;;;;5093434;28;20491;-70
2023/06/26 04:47:15;;;;;;;12.05;6.75;;;;;;;;;;5094491;28;20028;-70
2023/06/26 04:50:01;;;;;;;11.43;6.88;;;;;;;;;;5094428;28;20564;-70
2023/06/26 04:52:46;;;;;;;9.55;6.22;;;;;;;;;;5094438;28;20021;-70
2023/06/26 04:55:32;;;;;;;9.70;6.38;;;;;;;;;;5094389;28;20118;-62
2023/06/26 04:58:18;;;;;;;10.20;7.10;;;;;;;;;;5094233;28;20115;-62
2023/06/26 05:01:06;;;;;;;11.50;6.60;;;;;;;;;;5093195;28;20374;-61
2023/06/26 05:03:52;;;;;;;9.83;6.57;;;;;;;;;;5094313;28;20024;-62
2023/06/26 05:06:37;;;;;;;11.10;6.93;;;;;;;;;;5094335;28;20024;-63
2023/06/26 05:09:23;;;;;;;10.02;6.65;;;;;;;;;;5079998;28;20020;-61
2023/06/26 05:12:08;;;;;;;13.95;7.78;;;;;;;;;;5094170;28;20470;-69
2023/06/26 05:14:54;;;;;;;11.13;6.93;;;;;;;;;;5093971;28;20012;-61
2023/06/26 05:17:39;;;;;;;11.25;6.72;;;;;;;;;;5094343;28;20039;-60
2023/06/26 05:20:25;;;;;;;10.05;7.15;;;;;;;;;;5093602;28;20402;-61
2023/06/26 05:23:11;;;;;;;13.93;6.95;;;;;;;;;;5079952;28;20020;-63
2023/06/26 05:25:57;;;;;;;11.93;6.70;;;;;;;;;;5092710;28;20046;-63
2023/06/26 05:28:48;;;;;;;10.63;6.90;;;;;;;;;;5093812;28;20107;-72
2023/06/26 05:31:35;;;;;;;15.20;7.43;;;;;;;;;;5092628;28;20036;-72
2023/06/26 05:34:22;;;;;;;29.55;7.32;;;;;;;;;;5078348;28;20055;-74
2023/06/26 05:37:07;;;;;;;13.80;7.10;;;;;;;;;;5093783;28;20107;-69
2023/06/26 05:39:53;;;;;;;10.40;5.50;;;;;;;;;;5093700;28;20089;-69
2023/06/26 05:42:39;;;;;;;8.77;5.53;;;;;;;;;;5093933;28;20024;-69
2023/06/26 05:45:24;;;;;;;10.23;6.63;;;;;;;;;;5093657;28;20051;-74
2023/06/26 05:48:10;;;;;;;10.52;6.60;;;;;;;;;;5093340;28;20115;-61
2023/06/26 05:50:55;;;;;;;9.63;5.88;;;;;;;;;;5092550;28;20433;-65
2023/06/26 05:53:41;;;;;;;8.40;5.97;;;;;;;;;;5093598;28;20467;-65
2023/06/26 05:56:27;;;;;;;13.90;6.50;;;;;;;;;;5078141;28;20028;-65
2023/06/26 05:59:14;;;;;;;13.85;6.72;;;;;;;;;;5093203;28;20478;-66
2023/06/26 06:02:00;;;;;;;9.65;5.63;;;;;;;;;;5092136;28;20036;-66
2023/06/26 06:04:45;;;;;;;14.02;5.80;;;;;;;;;;5092751;28;20024;-63
2023/06/26 06:07:32;;;;;;;10.02;6.10;;;;;;;;;;5092858;28;20363;-69
2023/06/26 06:10:17;;;;;;;9.82;5.30;;;;;;;;;;5093107;28;20374;-67
2023/06/26 06:13:03;;;;;;;8.18;5.70;;;;;;;;;;5092977;28;20391;-67
2023/06/26 06:15:49;;;;;;;8.38;5.80;;;;;;;;;;5093090;28;20035;-67
2023/06/26 06:18:34;;;;;;;8.82;5.75;;;;;;;;;;5093171;28;20471;-66
2023/06/26 06:21:20;;;;;;;8.75;5.93;;;;;;;;;;5092619;28;20106;-66
2023/06/26 06:24:06;;;;;;;8.57;5.85;;;;;;;;;;5093097;28;20028;-67
2023/06/26 06:26:52;;;;;;;9.68;6.53;;;;;;;;;;5093149;28;20028;-73
2023/06/26 06:29:40;;;;;;;9.00;6.18;;;;;;;;;;5092931;28;20069;-72
2023/06/26 06:32:26;;;;;;;10.13;5.97;;;;;;;;;;5092895;28;20024;-73
2023/06/26 06:35:12;;;;;;;8.32;5.43;;;;;;;;;;5092868;28;20356;-73
2023/06/26 06:37:57;;;;;;;9.80;5.90;;;;;;;;;;5092541;28;20100;-73
2023/06/26 06:40:43;;;;;;;8.85;5.97;;;;;;;;;;5092985;28;20389;-72
2023/06/26 06:43:28;;;;;;;9.63;5.85;;;;;;;;;;5092773;28;20039;-67
2023/06/26 06:46:14;;;;;;;8.43;5.13;;;;;;;;;;5095546;28;20463;-68
2023/06/26 06:49:00;;;;;;;9.35;4.93;;;;;;;;;;5096904;28;20032;-68
2023/06/26 06:51:45;;;;;;;11.65;5.65;;;;;;;;;;5096051;28;20024;-68
2023/06/26 06:54:31;;;;;;;7.13;5.07;;;;;;;;;;5096854;28;20087;-68
2023/06/26 06:57:16;;;;;;;8.52;5.82;;;;;;;;;;5096775;28;20035;-68
2023/06/26 07:00:04;;;;;;;11.02;5.28;;;;;;;;;;5096838;28;20469;-68
2023/06/26 07:02:50;;;;;;;7.03;4.72;;;;;;;;;;5096752;28;20038;-67
2023/06/26 07:05:35;;;;;;;11.55;5.22;;;;;;;;;;5096876;28;20501;-68
2023/06/26 07:08:21;;;;;;;9.10;5.20;;;;;;;;;;5097788;28;20468;-68
2023/06/26 07:11:06;;;;;;;6.95;5.00;;;;;;;;;;5097531;28;20020;-68
2023/06/26 07:13:52;;;;;;;8.93;5.35;;;;;;;;;;5096596;28;20028;-68
2023/06/26 07:16:37;;;;;;;7.88;5.32;;;;;;;;;;5096532;28;20062;-68
2023/06/26 07:19:23;;;;;;;8.02;5.32;;;;;;;;;;5096923;28;20389;-68
2023/06/26 07:22:08;;;;;;;8.52;5.70;;;;;;;;;;5096378;28;20438;-68
2023/06/26 07:24:54;;;;;;;7.50;5.15;;;;;;;;;;5096391;28;20105;-68
2023/06/26 07:27:40;;;;;;;8.23;5.65;;;;;;;;;;5096243;28;20031;-69
2023/06/26 07:30:26;;;;;;;7.22;5.07;;;;;;;;;;5094901;28;20067;-69
2023/06/26 07:33:11;;;;;;;7.85;4.95;;;;;;;;;;5096018;28;20417;-68
2023/06/26 07:35:57;;;;;;;11.45;6.28;;;;;;;;;;5096168;28;20035;-68
2023/06/26 07:38:42;;;;;;;7.75;5.07;;;;;;;;;;5096038;28;20035;-68
2023/06/26 07:41:30;;;;;;;9.13;5.35;;;;;;;;;;5096600;28;20532;-68
2023/06/26 07:44:15;;;;;;;8.32;4.55;;;;;;;;;;5095847;28;20082;-67
2023/06/26 07:47:01;;;;;;;7.18;4.85;;;;;;;;;;5095514;28;20012;-68
2023/06/26 07:49:46;;;;;;;8.13;4.78;;;;;;;;;;5095665;28;20086;-68
2023/06/26 07:52:32;;;;;;;6.80;4.65;;;;;;;;;;5095892;28;20489;-68
2023/06/26 07:55:18;;;;;;;7.45;4.80;;;;;;;;;;5096284;28;20494;-66
2023/06/26 07:58:03;;;;;;;6.72;4.35;;;;;;;;;;5094838;28;20032;-68
2023/06/26 08:00:49;;;;;;;8.75;5.13;;;;;;;;;;5095523;28;20349;-68
2023/06/26 08:03:34;;;;;;;8.68;5.20;;;;;;;;;;5096139;28;20035;-67
2023/06/26 08:06:20;;;;;;;6.60;4.35;;;;;;;;;;5095484;28;20099;-68
2023/06/26 08:09:08;;;;;;;7.22;3.92;;;;;;;;;;5095110;28;20032;-68
2023/06/26 08:11:54;;;;;;;6.03;4.43;;;;;;;;;;5095219;28;20085;-67
2023/06/26 08:14:40;;;;;;;5.47;4.03;;;;;;;;;;5095357;28;20032;-68
2023/06/26 08:17:25;;;;;;;7.07;3.95;;;;;;;;;;5095809;28;20331;-71
2023/06/26 08:20:11;;;;;;;8.63;4.60;;;;;;;;;;5095806;28;20097;-70
2023/06/26 08:22:56;;;;;;;6.68;3.92;;;;;;;;;;5079384;28;20028;-71
2023/06/26 08:25:43;;;;;;;12.75;5.10;;;;;;;;;;5079533;28;20024;-70
2023/06/26 08:28:28;;;;;;;13.32;5.07;;;;;;;;;;5095175;28;20028;-70
2023/06/26 08:31:14;;;;;;;4.85;3.85;;;;;;;;;;5095110;28;20039;-71
2023/06/26 08:34:00;;;;;;;5.05;3.70;;;;;;;;;;5094358;28;20043;-73
2023/06/26 08:36:45;;;;;;;7.80;3.80;;;;;;;;;;5093552;28;20028;-72
2023/06/26 08:39:31;;;;;;;6.80;4.18;;;;;;;;;;5094884;28;20542;-73
2023/06/26 08:42:16;;;;;;;7.93;4.53;;;;;;;;;;5094671;28;20107;-73
2023/06/26 08:45:02;;;;;;;8.70;4.93;;;;;;;;;;5094825;28;20032;-73
2023/06/26 08:47:50;;;;;;;6.03;4.18;;;;;;;;;;5094129;28;20462;-73
2023/06/26 08:50:38;;;;;;;5.65;4.28;;;;;;;;;;5093591;28;20028;-73
2023/06/26 08:53:32;;;;;;;5.53;4.07;;;;;;;;;;5094704;28;20028;-72
2023/06/26 08:56:21;;;;;;;6.30;4.20;;;;;;;;;;5094254;28;20051;-73
2023/06/26 08:59:06;;;;;;;7.80;4.40;;;;;;;;;;5094630;28;20024;-73
2023/06/26 09:01:52;;;;;;;8.00;4.10;;;;;;;;;;5094385;28;20101;-73
2023/06/26 09:04:38;;;;;;;4.90;3.58;;;;;;;;;;5094913;28;20038;-72
2023/06/26 09:07:24;;;;;;;7.70;4.53;;;;;;;;;;5094319;28;20028;-73
2023/06/26 09:10:09;;;;;;;8.88;4.32;;;;;;;;;;5093127;28;20459;-65
2023/06/26 09:12:56;;;;;;;6.78;4.72;;;;;;;;;;5094297;28;20024;-70
2023/06/26 09:15:43;;;;;;;6.18;3.97;;;;;;;;;;5094183;28;20024;-70
2023/06/26 09:18:28;;;;;;;9.57;5.00;;;;;;;;;;5093994;28;20028;-70
2023/06/26 09:21:14;;;;;;;5.72;4.25;;;;;;;;;;5093957;28;20032;-70
2023/06/26 09:24:00;;;;;;;5.78;4.28;;;;;;;;;;5093815;28;20451;-71
2023/06/26 09:26:46;;;;;;;8.13;4.35;;;;;;;;;;5092774;28;20058;-70
2023/06/26 09:29:33;;;;;;;8.65;5.15;;;;;;;;;;5092063;28;20486;-66
2023/06/26 09:32:18;;;;;;;5.93;4.70;;;;;;;;;;5092859;28;20020;-71
2023/06/26 09:35:04;;;;;;;6.88;4.78;;;;;;;;;;5093648;28;20069;-69
2023/06/26 09:37:49;;;;;;;7.68;4.85;;;;;;;;;;5092017;28;20055;-70
2023/06/26 09:40:35;;;;;;;7.97;4.50;;;;;;;;;;5094248;28;20588;-70
2023/06/26 09:43:20;;;;;;;6.63;4.60;;;;;;;;;;5093292;28;20164;-70
2023/06/26 09:46:06;;;;;;;6.95;4.70;;;;;;;;;;5093465;28;20467;-67
2023/06/26 09:49:04;;;;;;;5.88;4.25;;;;;;;;;;5093382;28;20024;-65
2023/06/26 09:51:49;;;;;;;6.68;4.30;;;;;;;;;;5093343;28;20043;-65
2023/06/26 09:54:36;;;;;;;8.00;4.65;;;;;;;;;;5093534;28;20039;-65
2023/06/26 09:57:22;;;;;;;8.77;4.18;;;;;;;;;;5093310;28;20028;-67
2023/06/26 10:00:09;;;;;;;5.50;4.25;;;;;;;;;;5093872;28;20025;-66
2023/06/26 10:02:55;;;;;;;5.63;4.22;;;;;;;;;;5078623;28;20028;-65
2023/06/26 10:05:40;;;;;;;7.70;4.88;;;;;;;;;;5077988;28;20047;-67
2023/06/26 10:08:26;;;;;;;6.20;4.70;;;;;;;;;;5093758;28;20020;-72
2023/06/26 10:11:15;;;;;;;8.23;4.80;;;;;;;;;;5091762;28;20032;-72
2023/06/26 10:14:03;;;;;;;6.60;4.50;;;;;;;;;;5078506;28;20040;-73
2023/06/26 10:16:49;;;;;;;7.03;4.18;;;;;;;;;;5078481;28;20076;-73
2023/06/26 10:19:37;;;;;;;8.30;4.93;;;;;;;;;;5091764;28;20021;-72
2023/06/26 10:22:25;;;;;;;7.45;4.65;;;;;;;;;;5092956;28;20055;-73
2023/06/26 10:25:11;;;;;;;6.85;4.88;;;;;;;;;;5092093;28;20065;-65
2023/06/26 10:27:59;;;;;;;6.03;4.78;;;;;;;;;;5093083;28;20501;-67
2023/06/26 10:30:46;;;;;;;9.63;4.95;;;;;;;;;;5091764;28;20446;-69
2023/06/26 10:33:32;;;;;;;6.10;4.10;;;;;;;;;;5091920;28;20024;-67
2023/06/26 10:36:19;;;;;;;8.07;5.38;;;;;;;;;;5091813;28;20474;-67
2023/06/26 10:39:05;;;;;;;6.28;4.93;;;;;;;;;;5092531;28;20059;-67
2023/06/26 10:41:54;;;;;;;8.00;5.60;;;;;;;;;;5093022;28;20115;-65
2023/06/26 10:44:43;;;;;;;10.23;5.13;;;;;;;;;;5093027;28;20036;-66
2023/06/26 10:47:28;;;;;;;8.70;5.20;;;;;;;;;;5091506;28;20032;-66
2023/06/26 10:50:31;;;;;;;8.05;5.18;;;;;;;;;;5092889;28;20036;-65
2023/06/26 10:53:20;;;;;;;9.90;5.65;;;;;;;;;;5091882;28;20092;-65
2023/06/26 10:56:06;;;;;;;14.23;5.78;;;;;;;;;;5092721;28;20459;-66
2023/06/26 10:58:52;;;;;;;9.73;5.43;;;;;;;;;;5092761;28;20039;-65
2023/06/26 11:01:44;;;;;;;8.05;5.55;;;;;;;;;;5092297;28;20028;-69
2023/06/26 11:04:46;;;;;;;8.50;5.10;;;;;;;;;;5092655;28;20032;-66
2023/06/26 11:07:31;;;;;;;7.35;4.85;;;;;;;;;;5092569;28;20024;-65
2023/06/26 11:10:17;;;;;;;32.78;7.43;;;;;;;;;;5092760;28;20047;-66
2023/06/26 11:13:04;;;;;;;8.07;5.40;;;;;;;;;;5092759;28;20056;-66
2023/06/26 11:15:50;;;;;;;9.13;5.53;;;;;;;;;;5092698;28;20036;-66
2023/06/26 11:18:35;;;;;;;14.27;5.70;;;;;;;;;;5092625;28;20024;-71
2023/06/26 11:21:22;;;;;;;7.47;5.18;;;;;;;;;;5092149;28;20043;-68
2023/06/26 11:24:08;;;;;;;8.27;5.45;;;;;;;;;;5092559;28;20056;-68
2023/06/26 11:26:54;;;;;;;11.35;5.50;;;;;;;;;;5092658;28;20028;-67
2023/06/26 11:29:47;;;;;;;7.05;4.82;;;;;;;;;;5092481;28;20024;-68
2023/06/26 11:32:33;;;;;;;9.38;5.43;;;;;;;;;;5093813;28;20020;-68
2023/06/26 11:35:29;;;;;;;8.52;5.20;;;;;;;;;;5096346;28;20113;-68
2023/06/26 11:38:15;;;;;;;10.25;5.63;;;;;;;;;;5095980;28;20020;-66
2023/06/26 11:41:00;;;;;;;8.40;4.97;;;;;;;;;;5077690;22;20048;-66
2023/06/26 11:43:46;;;;;;;10.07;5.35;;;;;;;;;;5040698;28;20036;-67
2023/06/26 11:46:31;;;;;;;7.20;5.15;;;;;;;;;;5041555;28;20067;-68
2023/06/26 11:49:16;;;;;;;9.43;5.38;;;;;;;;;;5036134;28;20107;-70
2023/06/26 11:52:02;;;;;;;8.20;5.78;;;;;;;;;;5036049;28;20072;-70
2023/06/26 11:54:48;;;;;;;9.60;6.00;;;;;;;;;;5037134;28;20090;-77
2023/06/26 11:57:33;;;;;;;8.30;5.25;;;;;;;;;;5033968;28;20468;-68
2023/06/26 12:00:18;;;;;;;8.05;4.97;;;;;;;;;;5036741;28;20092;-70
2023/06/26 12:03:04;;;;;;;8.48;5.70;;;;;;;;;;5036453;28;20041;-70
2023/06/26 12:05:52;;;;;;;10.48;5.15;;;;;;;;;;5017497;28;20459;-71
2023/06/26 12:08:37;;;;;;;9.85;5.32;;;;;;;;;;5035362;28;20029;-71
2023/06/26 12:11:23;;;;;;;7.70;5.70;;;;;;;;;;5036215;28;20033;-71
2023/06/26 12:14:09;;;;;;;8.48;5.40;;;;;;;;;;5036550;28;20024;-70
2023/06/26 12:16:54;;;;;;;9.55;5.70;;;;;;;;;;5035608;28;20028;-68
2023/06/26 12:19:43;;;;;;;6.80;5.05;;;;;;;;;;5036464;28;20047;-68
2023/06/26 12:22:28;;;;;;;;;;;;;;;;;;5036050;28;20245;-67
2023/06/26 12:25:14;;;;;;;9.80;5.10;;;;;;;;;;5032090;28;20465;-67
2023/06/26 12:27:59;;;;;;;11.60;5.63;;;;;;;;;;5026439;28;20029;-68
2023/06/26 12:31:08;;;;;;;8.00;5.00;;;;;;;;;;5035859;28;20037;-67
2023/06/26 12:33:53;;;;;;;7.00;5.10;;;;;;;;;;5036080;28;20061;-66
2023/06/26 12:36:42;;;;;;;8.70;5.40;;;;;;;;;;5035254;28;20578;-67
2023/06/26 12:39:27;;;;;;;8.85;5.00;;;;;;;;;;5017005;28;20040;-67
2023/06/26 12:42:14;;;;;;;8.52;5.38;;;;;;;;;;5035976;28;20025;-70
2023/06/26 12:44:59;;;;;;;7.68;5.45;;;;;;;;;;5035883;28;20036;-67
2023/06/26 12:47:44;;;;;;;7.18;5.00;;;;;;;;;;5034832;28;20127;-67
2023/06/26 12:50:36;;;;;;;7.78;5.60;;;;;;;;;;5021885;28;20136;-75
2023/06/26 12:53:21;;;;;;;10.10;5.28;;;;;;;;;;5021328;28;20426;-73
2023/06/26 12:56:07;;;;;;;7.55;4.97;;;;;;;;;;5035043;28;20099;-70
2023/06/26 12:58:52;;;;;;;8.73;5.18;;;;;;;;;;5034738;28;20025;-70
2023/06/26 13:01:38;;;;;;;7.40;5.22;;;;;;;;;;5010080;28;20032;-70
2023/06/26 13:04:23;;;;;;;21.88;5.68;;;;;;;;;;5035363;28;20029;-74
2023/06/26 13:07:08;;;;;;;8.70;5.65;;;;;;;;;;5035022;28;20068;-72
2023/06/26 13:09:55;;;;;;;10.15;5.32;;;;;;;;;;5035198;28;20431;-68
2023/06/26 13:12:40;;;;;;;8.30;5.75;;;;;;;;;;5035768;28;20112;-78
2023/06/26 13:15:25;;;;;;;7.80;5.35;;;;;;;;;;5035358;28;20353;-78
2023/06/26 13:18:11;;;;;;;7.90;4.95;;;;;;;;;;5033843;28;20057;-78
2023/06/26 13:20:56;;;;;;;8.57;5.35;;;;;;;;;;5035667;28;20039;-78
2023/06/26 13:23:41;;;;;;;8.60;5.13;;;;;;;;;;5034032;28;20037;-77
2023/06/26 13:26:28;;;;;;;9.70;5.03;;;;;;;;;;5035028;28;20033;-78
2023/06/26 13:29:13;;;;;;;8.75;5.22;;;;;;;;;;5024583;28;20044;-69
2023/06/26 13:31:59;;;;;;;6.28;4.55;;;;;;;;;;5034935;28;20087;-68
2023/06/26 13:34:44;;;;;;;7.28;4.45;;;;;;;;;;5034864;28;20506;-67
2023/06/26 13:37:29;;;;;;;9.20;4.93;;;;;;;;;;5033613;28;20033;-69
2023/06/26 13:40:15;;;;;;;9.00;5.32;;;;;;;;;;5020917;28;20037;-67
2023/06/26 13:43:17;;;;;;;6.97;5.00;;;;;;;;;;5034457;28;20041;-68
2023/06/26 13:46:05;;;;;;;10.18;5.03;;;;;;;;;;5034322;28;20111;-70
2023/06/26 13:48:50;;;;;;;6.22;4.40;;;;;;;;;;5054942;22;20047;-65
2023/06/26 13:51:35;;;;;;;6.30;4.38;;;;;;;;;;5075668;28;20113;-63
2023/06/26 13:54:21;;;;;;;8.88;4.90;;;;;;;;;;5078921;28;20032;-63
2023/06/26 13:57:06;;;;;;;8.15;4.78;;;;;;;;;;5078873;28;20435;-64
2023/06/26 13:59:51;;;;;;;7.18;4.43;;;;;;;;;;5079077;28;20118;-64
2023/06/26 14:02:36;;;;;;;8.75;5.45;;;;;;;;;;5078982;28;20066;-63
2023/06/26 14:05:22;;;;;;;8.80;4.20;;;;;;;;;;5078648;28;20485;-63
2023/06/26 14:08:08;;;;;;;7.05;4.55;;;;;;;;;;5078985;28;20036;-67
2023/06/26 14:10:53;;;;;;;7.20;5.28;;;;;;;;;;5092707;28;20118;-68
2023/06/26 14:13:38;;;;;;;7.15;4.47;;;;;;;;;;5079131;28;20378;-67
2023/06/26 14:16:25;;;;;;;7.65;4.30;;;;;;;;;;5079249;28;20040;-67
2023/06/26 14:19:15;;;;;;;7.07;4.20;;;;;;;;;;5078822;28;20414;-67
2023/06/26 14:22:01;;;;;;;6.53;3.60;;;;;;;;;;5078912;28;20036;-71
2023/06/26 14:24:46;;;;;;;5.82;3.35;;;;;;;;;;5064821;28;20032;-65
2023/06/26 14:27:31;;;;;;;7.47;3.88;;;;;;;;;;5078815;28;20040;-64
2023/06/26 14:30:17;;;;;;;6.63;3.90;;;;;;;;;;5092822;28;20028;-64
2023/06/26 14:33:02;;;;;;;11.98;4.30;;;;;;;;;;5093037;28;20036;-66
2023/06/26 14:35:48;;;;;;;4.90;3.63;;;;;;;;;;5093099;28;20534;-65
2023/06/26 14:38:33;;;;;;;7.28;3.90;;;;;;;;;;5092323;28;20046;-64
2023/06/26 14:41:19;;;;;;;5.82;3.83;;;;;;;;;;5092719;28;20028;-64
2023/06/26 14:44:08;;;;;;;5.45;3.53;;;;;;;;;;5092819;28;20477;-72
2023/06/26 14:46:53;;;;;;;5.50;3.30;;;;;;;;;;5092113;28;20387;-74
2023/06/26 14:49:39;;;;;;;4.85;3.05;;;;;;;;;;5092099;28;20376;-72
2023/06/26 14:52:24;;;;;;;5.63;3.13;;;;;;;;;;5092808;28;20074;-72
2023/06/26 14:55:10;;;;;;;4.72;2.88;;;;;;;;;;5092910;28;20028;-72
2023/06/26 14:57:55;;;;;;;6.07;3.30;;;;;;;;;;5092756;28;20064;-72
2023/06/26 15:00:41;;;;;;;4.50;3.20;;;;;;;;;;5092836;28;20085;-65
2023/06/26 15:03:27;;;;;;;4.82;3.13;;;;;;;;;;5092078;28;20032;-72
2023/06/26 15:06:12;;;;;;;5.05;3.22;;;;;;;;;;5093591;28;20032;-73
2023/06/26 15:08:58;;;;;;;5.32;3.03;;;;;;;;;;5096037;28;20036;-72
2023/06/26 15:11:43;;;;;;;4.47;2.90;;;;;;;;;;5096605;28;20085;-72
2023/06/26 15:14:29;;;;;;;4.70;2.90;;;;;;;;;;5096578;28;20032;-73
2023/06/26 15:17:14;;;;;;;4.65;3.28;;;;;;;;;;5096414;28;20027;-70
2023/06/26 15:20:00;;;;;;;4.43;3.28;;;;;;;;;;5096422;28;20056;-68
2023/06/26 15:22:45;;;;;;;6.65;3.25;;;;;;;;;;5096339;28;20063;-73
2023/06/26 15:25:31;;;;;;;6.68;3.17;;;;;;;;;;5096308;28;20031;-74
2023/06/26 15:28:17;;;;;;;7.28;3.50;;;;;;;;;;5096202;28;20035;-73
2023/06/26 15:31:02;;;;;;;8.27;4.45;;;;;;;;;;5095899;28;20059;-74
2023/06/26 15:33:48;;;;;;;6.88;3.95;;;;;;;;;;5080996;28;20036;-75
2023/06/26 15:36:35;;;;;;;8.18;4.40;;;;;;;;;;5096379;28;20491;-67
2023/06/26 15:39:20;;;;;;;6.28;4.22;;;;;;;;;;5096477;28;20066;-63
2023/06/26 15:42:06;;;;;;;7.10;3.90;;;;;;;;;;5096064;28;20417;-62
2023/06/26 15:44:51;;;;;;;9.25;4.03;;;;;;;;;;5095884;28;20024;-64
2023/06/26 15:47:37;;;;;;;7.22;4.72;;;;;;;;;;5095983;28;20039;-63
2023/06/26 15:56:00;;;;;;;10.20;4.82;;;;;;;;;;4626386;22;20117;-72
2023/06/26 15:58:41;;;;;;;8.70;4.38;;;;;;;;;;5066799;22;20496;-69
2023/06/26 16:01:26;;;;;;;8.40;4.63;;;;;;;;;;5047529;28;20040;-68
2023/06/26 16:04:12;;;;;;;6.97;4.57;;;;;;;;;;5068772;28;20489;-69
2023/06/26 16:06:57;;;;;;;9.23;5.38;;;;;;;;;;5067659;28;20103;-70
2023/06/26 16:09:42;;;;;;;7.20;4.47;;;;;;;;;;5049616;28;20041;-70
2023/06/26 16:12:28;;;;;;;9.48;5.10;;;;;;;;;;5050748;28;20029;-71
2023/06/26 16:15:13;;;;;;;9.38;5.32;;;;;;;;;;5056563;28;20136;-76
2023/06/26 16:17:58;;;;;;;8.00;4.95;;;;;;;;;;5060703;28;20036;-74
2023/06/26 16:20:43;;;;;;;9.18;5.15;;;;;;;;;;5057162;28;20055;-75
2023/06/26 16:23:29;;;;;;;8.57;4.75;;;;;;;;;;5036336;28;20028;-74
2023/06/26 16:26:14;;;;;;;11.10;5.68;;;;;;;;;;5048501;28;20029;-75
2023/06/26 16:29:00;;;;;;;10.65;5.47;;;;;;;;;;5064687;28;20074;-76
2023/06/26 16:31:46;;;;;;;8.77;5.85;;;;;;;;;;5053345;28;20062;-69
2023/06/26 16:34:31;;;;;;;8.20;4.40;;;;;;;;;;5042462;28;20483;-69
2023/06/26 16:37:16;;;;;;;9.10;5.32;;;;;;;;;;5045227;28;20052;-69